Terminal Aerodrome Forecast
Issued by NWS Mt. Holly, NJ

Home | Current Version | Previous Version | Text Only | Print | Product List | Glossary On
Versions: 1 2 3 4 5 6 7 8 9 10 11 12 13 14 15 16 17 18 19 20 21 22 23 24 25 26 27 28 29 30 31 32 33 34 35 36 37 38 39 40 41 42 43 44 45 46 47 48 49 50
736
FTUS41 KPHI 280809 AAA
TAFABE
TAF AMD
KABE 280809Z 2808/2906 10004KT 4SM BR VCSH OVC014
     FM281000 07004KT 2SM BR VCSH OVC007
      TEMPO 2811/2814 1SM -SHRA BR OVC004
     FM281400 06004KT 2SM BR VCSH OVC006
     FM282000 06004KT 5SM RA BR OVC007
     FM290000 36004KT 2SM BR VCSH OVC015
     FM290300 36006KT P6SM BKN025=

USA.gov is the U.S. government's official web portal to all federal, state and local government web resources and services.